FQMA/MPM METAR and TAF weather

Enter ICAO airport designator
Station Type Date Time Source
FQMA METAR 2021/06/25 04:00 UTC NOAA

FQMA 250400Z 00000KT 0000 FG VV/// 15/14 Q1017 NOSIG


Station Type Date Time Source
FQMA Decoded METAR 2021/06/25 04:00 UTC NOAA

Maputo / Mavalane, Mozambique (FQMA) 25-55S 032-34E 44M
Jun 25, 2021 - 12:00 AM EDT / 2021.06.25 0400 UTC
Wind: Calm:0
Visibility: less than 1 mile:0
Sky conditions: obscured
Weather: fog
Temperature: 59 F (15 C)
Dew Point: 57 F (14 C)
Relative Humidity: 93%
Pressure (altimeter): 30.03 in. Hg (1017 hPa)
ob: FQMA 250400Z 00000KT 0000 FG VV/// 15/14 Q1017 NOSIG
cycle: 4

Station Type Date Time Source
FQMA TAF 2021/06/25 06:54 UTC NOAA

TAF FQMA 250400Z 2506/2612 32010KT CAVOK TX28/2513Z TN13/2603Z PROB30
TEMPO 2506/2509 0100 FG FEW025
BECMG 2512/2514 08010KT
BECMG 2518/2520 33010KT
BECMG 2606/2608 33010G20KT

Example: see airport list